This is the latest recevied weather packets stored in our database for station/object SQ9MHX-13. If no packets are shown the sender has not sent any weather packets the latest 10 day(s).
| Time | Temp. | Humidity | Pressure | Rain* | Wind** | Luminosity | Snow |
|---|---|---|---|---|---|---|---|
| 1777931466 | 11.11° C | 66% | 970.1 hPa | - | 0 m/s | - | - |
| 1777931168 | 10° C | 69% | 970 hPa | - | 0 m/s | - | - |
| 1777930869 | 11.11° C | 66% | 968.5 hPa | - | 0 m/s | - | - |
| 1777930570 | 12.22° C | 60% | 966.7 hPa | - | 0 m/s | - | - |
| 1777930272 | 12.78° C | 52% | 965.9 hPa | - | 0 m/s | - | - |
| 1777929973 | 12.78° C | 55% | 964.3 hPa | - | 0 m/s | - | - |
| 1777929376 | 15° C | 44% | 962.7 hPa | - | 0 m/s | - | - |
| 1777929078 | 15° C | 44% | 962.5 hPa | - | 0 m/s | - | - |
| 1777928480 | 15° C | 45% | 962.8 hPa | - | 0 m/s | - | - |
| 1777928181 | 15° C | 46% | 963.2 hPa | - | 0 m/s | - | - |
| 1777927883 | 15° C | 47% | 964.4 hPa | - | 0 m/s | - | - |
| 1777927600 | 12.78° C | 54% | - | - | 0 m/s | - | - |
| 1777927584 | 12.78° C | 54% | 964.7 hPa | - | 0 m/s | - | - |
| 1777927286 | 13.89° C | 54% | 963 hPa | - | 0 m/s | - | - |
| 1777926987 | 16.11° C | 43% | 961.4 hPa | - | 0 m/s | - | - |
| 1777926688 | 16.11° C | 41% | 961.3 hPa | - | 0 m/s | - | - |
| 1777926390 | 16.11° C | 42% | 961.9 hPa | - | 0 m/s | - | - |
| 1777926091 | 15° C | 45% | 963.1 hPa | - | 0 m/s | - | - |
| 1777925792 | 15° C | 47% | 961.9 hPa | - | 0 m/s | - | - |
| 1777925493 | 16.11° C | 42% | 961.7 hPa | - | 0 m/s | - | - |
| 1777925195 | 16.11° C | 44% | 961.4 hPa | - | 0 m/s | - | - |
| 1777924896 | 17.22° C | 39% | 960.3 hPa | - | 0 m/s | - | - |
| 1777924597 | 17.22° C | 39% | 959.8 hPa | - | 0 m/s | - | - |
| 1777924299 | 17.22° C | 38% | 959.4 hPa | - | 0 m/s | - | - |
| 1777924000 | 17.22° C | 38% | 959.5 hPa | - | 0 m/s | - | - |
* Rain since midnight (hover to see other rain measurements)
** Current wind speed in m/s (hover to see current wind gust speed)